Time;durP1;ratioP1;P1;durP2;ratioP2;P2;SDS_P1;SDS_P2;PMS_P1;PMS_P2;Temp;Humidity;BMP_temperature;BMP_pressure;BME280_temperature;BME280_humidity;BME280_pressure;Samples;Min_cycle;Max_cycle;Signal;HPM_P1;HPM_P2
2023/11/07 00:00:07;;;;;;;8.45;4.97;;;;;;;;;;1036103;28;20026;-72
2023/11/07 00:00:39;;;;;;;6.40;5.78;;;;;;;;;;1035752;28;20490;-72
2023/11/07 00:01:09;;;;;;;11.38;6.45;;;;;;;;;;1036023;28;20061;-72
2023/11/07 00:01:40;;;;;;;6.47;4.05;;;;;;;;;;1035821;28;20033;-71
2023/11/07 00:02:11;;;;;;;4.93;3.47;;;;;;;;;;1035663;28;20036;-71
2023/11/07 00:02:42;;;;;;;13.48;6.60;;;;;;;;;;1035615;28;20025;-71
2023/11/07 00:03:13;;;;;;;5.60;5.05;;;;;;;;;;1035586;28;20034;-71
2023/11/07 00:03:43;;;;;;;4.95;4.30;;;;;;;;;;1035632;28;20018;-71
2023/11/07 00:04:14;;;;;;;6.88;4.05;;;;;;;;;;1035632;28;20398;-71
2023/11/07 00:04:45;;;;;;;8.00;5.78;;;;;;;;;;1035454;28;20080;-71
2023/11/07 00:05:15;;;;;;;6.93;5.25;;;;;;;;;;1035520;28;20092;-71
2023/11/07 00:05:46;;;;;;;5.75;5.07;;;;;;;;;;1035505;28;20088;-71
2023/11/07 00:06:16;;;;;;;4.05;3.65;;;;;;;;;;1035469;28;20516;-71
2023/11/07 00:06:47;;;;;;;22.88;6.00;;;;;;;;;;1031597;28;20022;-71
2023/11/07 00:07:23;;;;;;;5.97;5.47;;;;;;;;;;1031462;28;20121;-71
2023/11/07 00:07:53;;;;;;;5.97;3.75;;;;;;;;;;1032322;28;20069;-71
2023/11/07 00:08:25;;;;;;;17.25;5.28;;;;;;;;;;1034592;28;20056;-71
2023/11/07 00:08:55;;;;;;;4.93;4.47;;;;;;;;;;1034868;28;20080;-71
2023/11/07 00:09:25;;;;;;;11.75;3.92;;;;;;;;;;1035831;28;20021;-72
2023/11/07 00:09:56;;;;;;;6.75;6.15;;;;;;;;;;1036034;28;20477;-72
2023/11/07 00:10:28;;;;;;;7.10;4.28;;;;;;;;;;1035807;28;20659;-72
2023/11/07 00:10:59;;;;;;;9.77;8.85;;;;;;;;;;1035869;28;20071;-72
2023/11/07 00:11:30;;;;;;;13.52;7.85;;;;;;;;;;1035723;28;20095;-72
2023/11/07 00:12:01;;;;;;;5.70;5.22;;;;;;;;;;1035586;28;20029;-72
2023/11/07 00:12:31;;;;;;;3.45;3.05;;;;;;;;;;1035879;28;20028;-72
2023/11/07 00:13:02;;;;;;;6.60;5.53;;;;;;;;;;1036019;28;20125;-72
2023/11/07 00:13:32;;;;;;;13.70;5.63;;;;;;;;;;1035716;28;20030;-72
2023/11/07 00:14:03;;;;;;;5.30;4.80;;;;;;;;;;1036127;28;20022;-72
2023/11/07 00:14:33;;;;;;;4.15;3.85;;;;;;;;;;1035594;28;20324;-72
2023/11/07 00:15:04;;;;;;;7.07;5.70;;;;;;;;;;1035912;28;20117;-72
2023/11/07 00:15:34;;;;;;;8.40;7.57;;;;;;;;;;1035297;28;20137;-72
2023/11/07 00:16:05;;;;;;;5.32;3.88;;;;;;;;;;1035707;28;20469;-72
2023/11/07 00:16:36;;;;;;;7.50;6.85;;;;;;;;;;1035500;28;20382;-72
2023/11/07 00:17:06;;;;;;;10.50;5.65;;;;;;;;;;1035582;28;20104;-72
2023/11/07 00:17:37;;;;;;;15.77;7.32;;;;;;;;;;1035337;28;20088;-72
2023/11/07 00:18:07;;;;;;;4.95;4.60;;;;;;;;;;1035638;28;20664;-72
2023/11/07 00:18:38;;;;;;;4.82;4.35;;;;;;;;;;1035245;28;20049;-72
2023/11/07 00:19:08;;;;;;;8.48;6.30;;;;;;;;;;1035968;28;20030;-72
2023/11/07 00:19:39;;;;;;;11.35;5.53;;;;;;;;;;1035731;28;20486;-72
2023/11/07 00:20:10;;;;;;;4.72;4.38;;;;;;;;;;1036109;28;20068;-72
2023/11/07 00:20:41;;;;;;;8.00;5.47;;;;;;;;;;1034674;28;20030;-72
2023/11/07 00:21:11;;;;;;;9.77;8.35;;;;;;;;;;1035923;28;20061;-72
2023/11/07 00:21:43;;;;;;;4.80;4.40;;;;;;;;;;1035847;28;20030;-72
2023/11/07 00:22:13;;;;;;;8.13;5.10;;;;;;;;;;1035961;28;20058;-72
2023/11/07 00:22:44;;;;;;;8.75;6.03;;;;;;;;;;1035875;28;20028;-72
2023/11/07 00:23:15;;;;;;;21.70;8.48;;;;;;;;;;1035791;28;20390;-72
2023/11/07 00:23:45;;;;;;;7.47;5.93;;;;;;;;;;1035448;28;20022;-72
2023/11/07 00:24:16;;;;;;;5.75;5.25;;;;;;;;;;1035687;28;20383;-72
2023/11/07 00:24:47;;;;;;;8.10;5.18;;;;;;;;;;1035568;28;20080;-72
2023/11/07 00:25:17;;;;;;;9.52;6.65;;;;;;;;;;1035448;28;20140;-72
2023/11/07 00:25:47;;;;;;;9.30;6.20;;;;;;;;;;1035897;28;20029;-72
2023/11/07 00:26:21;;;;;;;6.70;5.97;;;;;;;;;;1035821;28;20025;-72
2023/11/07 00:26:55;;;;;;;5.57;5.10;;;;;;;;;;1035887;28;20432;-72
2023/11/07 00:27:27;;;;;;;8.15;6.82;;;;;;;;;;1035338;28;20025;-72
2023/11/07 00:27:59;;;;;;;29.40;9.10;;;;;;;;;;1035989;28;20025;-72
2023/11/07 00:28:29;;;;;;;19.30;7.68;;;;;;;;;;1035416;28;20080;-72
2023/11/07 00:29:00;;;;;;;12.27;7.30;;;;;;;;;;1035554;28;20593;-72
2023/11/07 00:29:30;;;;;;;5.22;4.78;;;;;;;;;;1035332;28;20456;-72
2023/11/07 00:30:01;;;;;;;12.48;8.25;;;;;;;;;;1035804;28;20500;-72
2023/11/07 00:30:32;;;;;;;20.02;8.00;;;;;;;;;;1035721;28;20014;-72
2023/11/07 00:31:03;;;;;;;3.35;2.70;;;;;;;;;;1035886;28;20025;-72
2023/11/07 00:31:33;;;;;;;6.95;4.55;;;;;;;;;;1035657;28;20089;-72
2023/11/07 00:32:04;;;;;;;7.45;4.93;;;;;;;;;;1036044;28;20030;-71
2023/11/07 00:32:34;;;;;;;4.43;3.70;;;;;;;;;;1035228;28;20548;-72
2023/11/07 00:33:05;;;;;;;7.28;6.55;;;;;;;;;;1035581;28;20116;-72
2023/11/07 00:33:35;;;;;;;4.50;4.22;;;;;;;;;;1035344;28;20060;-72
2023/11/07 00:34:06;;;;;;;8.23;5.55;;;;;;;;;;1035598;28;20117;-72
2023/11/07 00:34:36;;;;;;;5.18;4.50;;;;;;;;;;1035314;28;20022;-72
2023/11/07 00:35:07;;;;;;;4.95;4.18;;;;;;;;;;1035592;28;20029;-72
2023/11/07 00:35:39;;;;;;;14.73;4.93;;;;;;;;;;1035245;28;20117;-72
2023/11/07 00:36:11;;;;;;;15.55;6.57;;;;;;;;;;1034862;28;20116;-72
2023/11/07 00:36:42;;;;;;;16.35;8.10;;;;;;;;;;1035832;28;20040;-72
2023/11/07 00:37:13;;;;;;;6.15;5.55;;;;;;;;;;1035801;28;20119;-72
2023/11/07 00:37:43;;;;;;;7.97;7.15;;;;;;;;;;1035636;28;20444;-72
2023/11/07 00:38:14;;;;;;;5.47;4.13;;;;;;;;;;1035922;28;20667;-72
2023/11/07 00:38:44;;;;;;;3.97;3.67;;;;;;;;;;1035805;28;20674;-72
2023/11/07 00:39:16;;;;;;;9.93;5.28;;;;;;;;;;1035513;28;20096;-72
2023/11/07 00:39:46;;;;;;;15.02;7.07;;;;;;;;;;1035820;28;20386;-72
2023/11/07 00:40:17;;;;;;;7.63;6.82;;;;;;;;;;1035751;28;20026;-72
2023/11/07 00:40:48;;;;;;;11.20;7.25;;;;;;;;;;1035781;28;20457;-72
2023/11/07 00:41:19;;;;;;;9.93;4.88;;;;;;;;;;1035036;28;20065;-72
2023/11/07 00:41:49;;;;;;;12.00;9.23;;;;;;;;;;1035718;28;20103;-72
2023/11/07 00:42:20;;;;;;;8.27;6.28;;;;;;;;;;1034760;28;20477;-72
2023/11/07 00:42:50;;;;;;;13.88;8.25;;;;;;;;;;1035894;28;20026;-72
2023/11/07 00:43:21;;;;;;;18.42;9.63;;;;;;;;;;1034989;28;20021;-72
2023/11/07 00:43:51;;;;;;;10.32;7.65;;;;;;;;;;1035650;28;20116;-72
2023/11/07 00:44:22;;;;;;;9.82;4.63;;;;;;;;;;1033294;28;20398;-72
2023/11/07 00:44:52;;;;;;;4.32;3.95;;;;;;;;;;1032642;28;20046;-72
2023/11/07 00:45:23;;;;;;;8.60;5.72;;;;;;;;;;1035337;28;20018;-72
2023/11/07 00:45:54;;;;;;;8.98;5.32;;;;;;;;;;1035534;28;20025;-72
2023/11/07 00:46:24;;;;;;;11.32;6.43;;;;;;;;;;1035774;28;20466;-72
2023/11/07 00:46:55;;;;;;;9.80;5.32;;;;;;;;;;1035824;28;20391;-72
2023/11/07 00:47:25;;;;;;;6.07;5.57;;;;;;;;;;1035604;28;20405;-72
2023/11/07 00:47:56;;;;;;;5.03;4.55;;;;;;;;;;1035908;28;20375;-72
2023/11/07 00:48:27;;;;;;;5.78;3.78;;;;;;;;;;1035112;28;20792;-72
2023/11/07 00:48:58;;;;;;;5.13;4.68;;;;;;;;;;1035439;28;20116;-72
2023/11/07 00:49:28;;;;;;;12.30;5.72;;;;;;;;;;1035361;28;20079;-72
2023/11/07 00:49:59;;;;;;;7.78;6.70;;;;;;;;;;1035654;28;20026;-72
2023/11/07 00:50:29;;;;;;;4.88;4.00;;;;;;;;;;1035226;28;20124;-72
2023/11/07 00:51:00;;;;;;;9.63;6.30;;;;;;;;;;1035286;28;20092;-72
2023/11/07 00:51:30;;;;;;;6.63;4.68;;;;;;;;;;1035168;28;20026;-72
2023/11/07 00:52:01;;;;;;;8.35;4.40;;;;;;;;;;1035736;28;20033;-72
2023/11/07 00:52:31;;;;;;;5.25;4.60;;;;;;;;;;1035285;28;20075;-72
2023/11/07 00:53:03;;;;;;;3.70;3.35;;;;;;;;;;1035570;28;20140;-72
2023/11/07 00:53:34;;;;;;;3.05;2.85;;;;;;;;;;1035044;28;20088;-72
2023/11/07 00:54:04;;;;;;;5.15;4.78;;;;;;;;;;1035957;28;20537;-72
2023/11/07 00:54:35;;;;;;;20.60;10.35;;;;;;;;;;1035589;28;20116;-72
2023/11/07 00:55:07;;;;;;;27.85;6.80;;;;;;;;;;1035440;28;20060;-72
2023/11/07 00:55:37;;;;;;;12.52;7.43;;;;;;;;;;1035231;28;20029;-72
2023/11/07 00:56:08;;;;;;;14.80;9.38;;;;;;;;;;1035272;28;20024;-72
2023/11/07 00:56:38;;;;;;;19.42;9.90;;;;;;;;;;1035065;28;20030;-72
2023/11/07 00:57:09;;;;;;;21.42;7.88;;;;;;;;;;1035242;28;20117;-72
2023/11/07 00:57:39;;;;;;;14.88;9.05;;;;;;;;;;1035634;28;20017;-72
2023/11/07 00:58:10;;;;;;;24.17;13.55;;;;;;;;;;1034854;28;20054;-72
2023/11/07 00:58:40;;;;;;;38.13;12.25;;;;;;;;;;1035680;28;20055;-72
2023/11/07 00:59:11;;;;;;;16.48;9.32;;;;;;;;;;1035717;28;20049;-71
2023/11/07 00:59:41;;;;;;;6.75;4.90;;;;;;;;;;1036204;28;20034;-71
2023/11/07 01:00:15;;;;;;;15.20;8.95;;;;;;;;;;1035732;28;20943;-71
2023/11/07 01:00:45;;;;;;;6.45;5.35;;;;;;;;;;1035753;28;20041;-71
2023/11/07 01:01:17;;;;;;;8.75;7.90;;;;;;;;;;1035591;28;20105;-71
2023/11/07 01:01:47;;;;;;;8.52;5.22;;;;;;;;;;1035831;28;20026;-71
2023/11/07 01:02:17;;;;;;;7.28;6.65;;;;;;;;;;1035772;28;20025;-71
2023/11/07 01:02:48;;;;;;;4.35;3.25;;;;;;;;;;1035710;28;20026;-71
2023/11/07 01:03:18;;;;;;;6.88;5.95;;;;;;;;;;1035583;28;20458;-72
2023/11/07 01:03:49;;;;;;;19.42;6.03;;;;;;;;;;1035689;28;20441;-72
2023/11/07 01:04:19;;;;;;;7.82;7.05;;;;;;;;;;1035735;28;20048;-72
2023/11/07 01:04:50;;;;;;;10.43;4.90;;;;;;;;;;1035833;28;20029;-72
2023/11/07 01:05:20;;;;;;;3.92;2.47;;;;;;;;;;1035505;28;20172;-72
2023/11/07 01:05:50;;;;;;;5.28;4.72;;;;;;;;;;1035817;28;20018;-72
2023/11/07 01:06:21;;;;;;;13.85;7.00;;;;;;;;;;1035578;28;20120;-71
2023/11/07 01:06:51;;;;;;;6.63;4.88;;;;;;;;;;1035861;28;20414;-71
2023/11/07 01:07:22;;;;;;;4.88;4.32;;;;;;;;;;1035550;28;20433;-71
2023/11/07 01:07:52;;;;;;;15.40;8.73;;;;;;;;;;1035512;28;20100;-71
2023/11/07 01:08:23;;;;;;;8.00;7.35;;;;;;;;;;1035317;28;20030;-71
2023/11/07 01:08:53;;;;;;;4.57;4.20;;;;;;;;;;1035493;28;20109;-71
2023/11/07 01:09:24;;;;;;;7.57;6.82;;;;;;;;;;1034920;28;20145;-71
2023/11/07 01:09:54;;;;;;;4.47;3.90;;;;;;;;;;1035855;28;20120;-71
2023/11/07 01:10:24;;;;;;;5.28;4.53;;;;;;;;;;1034613;28;20513;-71
2023/11/07 01:10:55;;;;;;;3.90;2.85;;;;;;;;;;1034528;28;20017;-71
2023/11/07 01:11:25;;;;;;;6.03;3.72;;;;;;;;;;1035578;28;20029;-71
2023/11/07 01:11:56;;;;;;;6.93;6.32;;;;;;;;;;1035821;28;20018;-71
2023/11/07 01:12:28;;;;;;;8.93;4.55;;;;;;;;;;1034816;28;20029;-71
2023/11/07 01:12:59;;;;;;;4.78;4.10;;;;;;;;;;1035409;28;20036;-71
2023/11/07 01:13:29;;;;;;;4.60;4.30;;;;;;;;;;1035199;28;20018;-71
2023/11/07 01:14:00;;;;;;;8.75;6.60;;;;;;;;;;1035624;28;20108;-71
2023/11/07 01:14:31;;;;;;;8.07;4.63;;;;;;;;;;1035497;28;20032;-72
2023/11/07 01:15:03;;;;;;;10.77;5.93;;;;;;;;;;1035800;28;20026;-72
2023/11/07 01:15:33;;;;;;;7.47;4.55;;;;;;;;;;1035063;28;20036;-72
2023/11/07 01:16:04;;;;;;;3.05;2.10;;;;;;;;;;1034896;28;20018;-72
2023/11/07 01:16:35;;;;;;;7.50;6.80;;;;;;;;;;1035242;28;20108;-72
2023/11/07 01:17:06;;;;;;;8.73;7.28;;;;;;;;;;1035438;28;20112;-72
2023/11/07 01:17:36;;;;;;;8.07;3.97;;;;;;;;;;1035200;28;20494;-72
2023/11/07 01:18:07;;;;;;;14.80;7.82;;;;;;;;;;1035806;28;20116;-72
2023/11/07 01:18:38;;;;;;;25.23;5.80;;;;;;;;;;1035324;28;20033;-72
2023/11/07 01:19:09;;;;;;;11.05;6.05;;;;;;;;;;1035728;28;20409;-72
2023/11/07 01:19:40;;;;;;;5.75;5.22;;;;;;;;;;1034517;28;20032;-72
2023/11/07 01:20:11;;;;;;;7.57;6.88;;;;;;;;;;1035461;28;20025;-72
2023/11/07 01:20:41;;;;;;;10.27;4.72;;;;;;;;;;1035189;28;20075;-72
2023/11/07 01:21:12;;;;;;;16.00;5.32;;;;;;;;;;1035279;28;20382;-72
2023/11/07 01:21:42;;;;;;;7.38;5.43;;;;;;;;;;1035267;28;20088;-72
2023/11/07 01:22:12;;;;;;;5.68;3.42;;;;;;;;;;1035482;28;20030;-72
2023/11/07 01:22:44;;;;;;;12.90;7.65;;;;;;;;;;1035323;28;20022;-72
2023/11/07 01:23:15;;;;;;;4.63;4.20;;;;;;;;;;1035340;28;20026;-72
2023/11/07 01:23:45;;;;;;;34.95;7.40;;;;;;;;;;1035671;28;20057;-72
2023/11/07 01:24:15;;;;;;;16.35;8.20;;;;;;;;;;1035711;28;20030;-72
2023/11/07 01:24:46;;;;;;;19.50;7.32;;;;;;;;;;1035649;28;20021;-72
2023/11/07 01:25:17;;;;;;;24.42;10.00;;;;;;;;;;1035150;28;20506;-71
2023/11/07 01:25:47;;;;;;;12.75;6.88;;;;;;;;;;1035397;28;20458;-71
2023/11/07 01:26:17;;;;;;;9.48;7.00;;;;;;;;;;1035214;28;20018;-71
2023/11/07 01:26:48;;;;;;;12.52;7.07;;;;;;;;;;1030606;28;20054;-71
2023/11/07 01:27:18;;;;;;;12.45;6.93;;;;;;;;;;1031009;28;20026;-71
2023/11/07 01:27:49;;;;;;;28.95;8.75;;;;;;;;;;1031426;28;20018;-71
2023/11/07 01:28:21;;;;;;;5.97;4.93;;;;;;;;;;1035339;28;20479;-71
2023/11/07 01:28:52;;;;;;;8.35;7.25;;;;;;;;;;1035713;28;20366;-71
2023/11/07 01:29:22;;;;;;;13.75;9.70;;;;;;;;;;1035360;28;20033;-71
2023/11/07 01:29:53;;;;;;;14.57;8.35;;;;;;;;;;1035618;28;20029;-71
2023/11/07 01:30:23;;;;;;;20.67;8.60;;;;;;;;;;1035543;28;20030;-71
2023/11/07 01:30:54;;;;;;;11.95;6.38;;;;;;;;;;1035206;28;20540;-71
2023/11/07 01:31:25;;;;;;;11.38;5.22;;;;;;;;;;1034136;28;20497;-72
2023/11/07 01:31:55;;;;;;;38.40;13.48;;;;;;;;;;1034188;28;20032;-72
2023/11/07 01:32:26;;;;;;;10.70;5.68;;;;;;;;;;1035326;28;20033;-72
2023/11/07 01:32:57;;;;;;;7.30;5.07;;;;;;;;;;1035305;28;20021;-72
2023/11/07 01:33:27;;;;;;;19.08;8.43;;;;;;;;;;1034941;28;20673;-72
2023/11/07 01:33:59;;;;;;;7.85;5.60;;;;;;;;;;1035443;28;20030;-72
2023/11/07 01:34:29;;;;;;;6.97;6.28;;;;;;;;;;1035286;28;20056;-72
2023/11/07 01:35:00;;;;;;;17.92;6.68;;;;;;;;;;1035384;28;20302;-72
2023/11/07 01:35:30;;;;;;;23.77;8.93;;;;;;;;;;1035404;28;20061;-72
2023/11/07 01:36:01;;;;;;;20.52;11.30;;;;;;;;;;1035270;28;20080;-72
2023/11/07 01:36:31;;;;;;;17.48;7.97;;;;;;;;;;1033168;28;20347;-72
2023/11/07 01:37:02;;;;;;;14.27;6.85;;;;;;;;;;1033330;28;20562;-72
2023/11/07 01:37:33;;;;;;;21.48;7.80;;;;;;;;;;1033152;28;20146;-72
2023/11/07 01:38:03;;;;;;;17.30;5.95;;;;;;;;;;1035533;28;20018;-72
2023/11/07 01:38:33;;;;;;;21.10;10.00;;;;;;;;;;1035463;28;20462;-72
2023/11/07 01:39:05;;;;;;;9.52;6.95;;;;;;;;;;1035702;28;20408;-72
2023/11/07 01:39:35;;;;;;;11.30;4.72;;;;;;;;;;1035014;28;20032;-72
2023/11/07 01:40:06;;;;;;;14.55;7.35;;;;;;;;;;1035509;28;20049;-72
2023/11/07 01:40:36;;;;;;;13.90;6.97;;;;;;;;;;1033455;28;20026;-72
2023/11/07 01:41:07;;;;;;;13.15;10.55;;;;;;;;;;1032957;28;20017;-72
2023/11/07 01:41:38;;;;;;;10.18;7.25;;;;;;;;;;1035130;28;20037;-72
2023/11/07 01:42:09;;;;;;;4.05;3.20;;;;;;;;;;1031068;28;20026;-72
2023/11/07 01:42:45;;;;;;;11.30;7.85;;;;;;;;;;1031187;28;20117;-72
2023/11/07 01:43:16;;;;;;;8.57;3.40;;;;;;;;;;1030901;28;20022;-72
2023/11/07 01:43:46;;;;;;;6.60;5.05;;;;;;;;;;1032088;28;20010;-71
2023/11/07 01:44:17;;;;;;;5.65;4.53;;;;;;;;;;1035455;28;20076;-71
2023/11/07 01:44:49;;;;;;;30.48;8.73;;;;;;;;;;1035596;28;20128;-71
2023/11/07 01:45:20;;;;;;;7.25;5.85;;;;;;;;;;1035048;28;20057;-71
2023/11/07 01:45:50;;;;;;;16.42;7.57;;;;;;;;;;1035322;28;20080;-71
2023/11/07 01:46:21;;;;;;;10.07;7.00;;;;;;;;;;1035139;28;20459;-71
2023/11/07 01:46:51;;;;;;;6.65;5.22;;;;;;;;;;1032315;28;20018;-71
2023/11/07 01:47:25;;;;;;;13.82;9.52;;;;;;;;;;1033025;28;20121;-71
2023/11/07 01:47:55;;;;;;;14.93;7.53;;;;;;;;;;1034261;28;20022;-71
2023/11/07 01:48:26;;;;;;;5.70;5.15;;;;;;;;;;1034958;28;20021;-71
2023/11/07 01:48:57;;;;;;;9.27;6.38;;;;;;;;;;1031169;28;20219;-71
2023/11/07 01:49:27;;;;;;;5.32;4.93;;;;;;;;;;1031230;28;21048;-71
2023/11/07 01:49:58;;;;;;;6.95;5.13;;;;;;;;;;1035390;28;20065;-71
2023/11/07 01:50:29;;;;;;;7.00;6.35;;;;;;;;;;1035121;28;20026;-71
2023/11/07 01:51:00;;;;;;;7.57;6.82;;;;;;;;;;1035160;28;20080;-71
2023/11/07 01:51:31;;;;;;;7.43;4.38;;;;;;;;;;1035051;28;20474;-71
2023/11/07 01:52:01;;;;;;;4.05;3.70;;;;;;;;;;1035438;28;20021;-71
2023/11/07 01:52:32;;;;;;;8.90;7.47;;;;;;;;;;1035525;28;20060;-71
2023/11/07 01:53:03;;;;;;;5.85;5.32;;;;;;;;;;1035649;28;20013;-72
2023/11/07 01:53:34;;;;;;;14.70;8.25;;;;;;;;;;1034849;28;20041;-72
2023/11/07 01:54:04;;;;;;;5.72;5.05;;;;;;;;;;1035782;28;20021;-72
2023/11/07 01:54:35;;;;;;;22.70;5.90;;;;;;;;;;1035427;28;20079;-72
2023/11/07 01:55:07;;;;;;;15.32;5.82;;;;;;;;;;1035645;28;20022;-72
2023/11/07 01:55:38;;;;;;;15.98;8.32;;;;;;;;;;1035096;28;20091;-72
2023/11/07 01:56:08;;;;;;;8.15;3.92;;;;;;;;;;1035088;28;20616;-72
2023/11/07 01:56:40;;;;;;;5.90;4.10;;;;;;;;;;1032923;28;20505;-72
2023/11/07 01:57:13;;;;;;;8.65;5.53;;;;;;;;;;1031753;28;20028;-71
2023/11/07 01:57:44;;;;;;;6.35;5.80;;;;;;;;;;1035216;28;20014;-71
2023/11/07 01:58:15;;;;;;;6.25;5.63;;;;;;;;;;1035405;28;20044;-71
2023/11/07 01:58:47;;;;;;;17.17;8.30;;;;;;;;;;1035187;28;20025;-71
2023/11/07 01:59:18;;;;;;;18.05;3.95;;;;;;;;;;1035025;28;20034;-71
2023/11/07 01:59:48;;;;;;;7.57;5.70;;;;;;;;;;1035823;28;20453;-71
2023/11/07 02:00:19;;;;;;;11.70;6.82;;;;;;;;;;1035269;28;20563;-72
2023/11/07 02:00:51;;;;;;;7.22;6.53;;;;;;;;;;1035362;28;20030;-72
2023/11/07 02:01:23;;;;;;;13.70;7.90;;;;;;;;;;1035171;28;20117;-72
2023/11/07 02:01:54;;;;;;;5.03;4.57;;;;;;;;;;1035479;28;20025;-72
2023/11/07 02:02:25;;;;;;;16.98;6.28;;;;;;;;;;1034418;28;20370;-72
2023/11/07 02:02:58;;;;;;;21.35;6.80;;;;;;;;;;1035418;28;20026;-72
2023/11/07 02:03:28;;;;;;;5.20;3.35;;;;;;;;;;1035369;28;20037;-72
2023/11/07 02:03:58;;;;;;;6.10;5.60;;;;;;;;;;1035720;28;20560;-72
2023/11/07 02:04:29;;;;;;;4.47;3.67;;;;;;;;;;1035447;28;20080;-72
2023/11/07 02:05:00;;;;;;;10.30;5.60;;;;;;;;;;1035557;28;20036;-72
2023/11/07 02:05:30;;;;;;;9.98;4.55;;;;;;;;;;1035332;28;20061;-72
2023/11/07 02:06:01;;;;;;;52.58;9.00;;;;;;;;;;1035652;28;20117;-72
2023/11/07 02:06:31;;;;;;;7.80;4.45;;;;;;;;;;1035370;28;20025;-72
2023/11/07 02:07:02;;;;;;;7.45;5.47;;;;;;;;;;1035613;28;20029;-72
2023/11/07 02:07:32;;;;;;;7.85;6.00;;;;;;;;;;1035352;28;20025;-72
2023/11/07 02:08:05;;;;;;;15.57;9.57;;;;;;;;;;1035215;28;20112;-72
2023/11/07 02:08:36;;;;;;;10.23;7.65;;;;;;;;;;1035036;28;20524;-72
2023/11/07 02:09:08;;;;;;;6.10;5.65;;;;;;;;;;1035378;28;20032;-72
2023/11/07 02:09:39;;;;;;;2.92;2.72;;;;;;;;;;1035054;28;20818;-72
2023/11/07 02:10:09;;;;;;;7.80;6.47;;;;;;;;;;1035706;28;20029;-72
2023/11/07 02:10:40;;;;;;;6.32;3.90;;;;;;;;;;1034394;28;20022;-72
2023/11/07 02:11:11;;;;;;;11.27;4.68;;;;;;;;;;1034513;28;20669;-72
2023/11/07 02:11:41;;;;;;;3.67;3.38;;;;;;;;;;1035045;28;20014;-71
2023/11/07 02:12:12;;;;;;;23.65;5.97;;;;;;;;;;1035276;28;20464;-71
2023/11/07 02:12:42;;;;;;;5.07;3.33;;;;;;;;;;1033319;28;20065;-71
2023/11/07 02:13:13;;;;;;;4.32;4.00;;;;;;;;;;1033131;28;20149;-71
2023/11/07 02:13:49;;;;;;;13.75;7.95;;;;;;;;;;1033053;28;20033;-71
2023/11/07 02:14:27;;;;;;;4.13;3.75;;;;;;;;;;1033320;28;20023;-71
2023/11/07 02:14:57;;;;;;;18.33;8.10;;;;;;;;;;1033042;28;20077;-71
2023/11/07 02:15:29;;;;;;;7.03;6.30;;;;;;;;;;1034060;28;20549;-73
2023/11/07 02:16:00;;;;;;;10.02;3.75;;;;;;;;;;1035333;28;20136;-72
2023/11/07 02:16:30;;;;;;;4.78;4.43;;;;;;;;;;1035114;28;20034;-72
2023/11/07 02:17:01;;;;;;;12.85;5.47;;;;;;;;;;1035196;28;20018;-72
2023/11/07 02:17:31;;;;;;;18.75;9.77;;;;;;;;;;1032624;28;20026;-72
2023/11/07 02:18:02;;;;;;;6.57;5.95;;;;;;;;;;1031224;28;20097;-72
2023/11/07 02:18:32;;;;;;;10.95;6.05;;;;;;;;;;1031072;28;20026;-72
2023/11/07 02:19:03;;;;;;;15.40;7.30;;;;;;;;;;1033164;28;20026;-72
2023/11/07 02:19:34;;;;;;;20.27;3.63;;;;;;;;;;1034419;28;20030;-72
2023/11/07 02:20:05;;;;;;;8.00;7.25;;;;;;;;;;1035205;28;20580;-72
2023/11/07 02:20:38;;;;;;;7.13;4.10;;;;;;;;;;1034850;28;20080;-72
2023/11/07 02:21:09;;;;;;;9.65;5.40;;;;;;;;;;1035192;28;20052;-72
2023/11/07 02:21:39;;;;;;;3.38;3.17;;;;;;;;;;1035661;28;20068;-72
2023/11/07 02:22:10;;;;;;;10.27;5.03;;;;;;;;;;1036147;28;20052;-72
2023/11/07 02:22:47;;;;;;;7.78;5.38;;;;;;;;;;1035927;28;20156;-72
2023/11/07 02:23:32;;;;;;;3.95;2.88;;;;;;;;;;1035844;28;20112;-72
2023/11/07 02:24:03;;;;;;;3.90;3.58;;;;;;;;;;1036412;28;20049;-72
2023/11/07 02:24:34;;;;;;;16.60;6.72;;;;;;;;;;1035153;28;20030;-72
2023/11/07 02:25:05;;;;;;;7.13;5.25;;;;;;;;;;1032027;28;20695;-72
2023/11/07 02:25:38;;;;;;;13.23;6.43;;;;;;;;;;1031768;28;20033;-71
2023/11/07 02:26:09;;;;;;;4.20;3.90;;;;;;;;;;1028745;28;20546;-71
2023/11/07 02:26:39;;;;;;;4.65;3.33;;;;;;;;;;1032320;28;20115;-72
2023/11/07 02:27:10;;;;;;;2.92;2.70;;;;;;;;;;1030442;28;20482;-71
2023/11/07 02:27:41;;;;;;;23.38;5.78;;;;;;;;;;1032360;28;20025;-71
2023/11/07 02:28:11;;;;;;;8.05;7.30;;;;;;;;;;1036227;28;20030;-72
2023/11/07 02:28:44;;;;;;;7.90;5.55;;;;;;;;;;1035961;28;20026;-71
2023/11/07 02:29:15;;;;;;;6.10;4.93;;;;;;;;;;1035717;28;20022;-72
2023/11/07 02:29:46;;;;;;;4.10;3.65;;;;;;;;;;1035829;28;20025;-72
2023/11/07 02:30:16;;;;;;;6.25;4.72;;;;;;;;;;1036064;28;20457;-72
2023/11/07 02:30:47;;;;;;;9.38;4.60;;;;;;;;;;1035952;28;20578;-72
2023/11/07 02:31:18;;;;;;;5.25;4.78;;;;;;;;;;1035730;28;20118;-72
2023/11/07 02:31:48;;;;;;;11.13;6.72;;;;;;;;;;1035982;28;20125;-72
2023/11/07 02:32:19;;;;;;;4.28;3.80;;;;;;;;;;1035812;28;20478;-72
2023/11/07 02:32:50;;;;;;;22.48;6.28;;;;;;;;;;1031930;28;20077;-72
2023/11/07 02:33:21;;;;;;;4.57;3.05;;;;;;;;;;1031719;28;20122;-72
2023/11/07 02:33:51;;;;;;;4.80;4.35;;;;;;;;;;1032171;28;20596;-72
2023/11/07 02:34:22;;;;;;;6.38;5.13;;;;;;;;;;1035792;28;20060;-72
2023/11/07 02:34:52;;;;;;;13.95;6.45;;;;;;;;;;1035953;28;20018;-72
2023/11/07 02:35:23;;;;;;;4.75;4.25;;;;;;;;;;1035801;28;20092;-72
2023/11/07 02:35:54;;;;;;;4.90;4.57;;;;;;;;;;1036007;28;20085;-72
2023/11/07 02:36:24;;;;;;;3.17;2.92;;;;;;;;;;1036184;28;20064;-72
2023/11/07 02:36:56;;;;;;;5.43;3.40;;;;;;;;;;1035923;28;20548;-72
2023/11/07 02:37:26;;;;;;;6.50;5.45;;;;;;;;;;1035822;28;20064;-72
2023/11/07 02:37:56;;;;;;;8.52;6.40;;;;;;;;;;1036124;28;20111;-72
2023/11/07 02:38:28;;;;;;;8.40;4.18;;;;;;;;;;1035825;28;20040;-72
2023/11/07 02:38:59;;;;;;;11.70;5.22;;;;;;;;;;1036331;28;20120;-72
2023/11/07 02:39:30;;;;;;;9.60;5.65;;;;;;;;;;1036119;28;20363;-72
2023/11/07 02:40:00;;;;;;;7.25;4.30;;;;;;;;;;1036500;28;20151;-72
2023/11/07 02:40:31;;;;;;;4.68;3.22;;;;;;;;;;1036126;28;20030;-72
2023/11/07 02:41:01;;;;;;;5.53;3.83;;;;;;;;;;1036299;28;20064;-72
2023/11/07 02:41:32;;;;;;;13.27;5.32;;;;;;;;;;1035692;28;20033;-72
2023/11/07 02:42:03;;;;;;;8.90;5.82;;;;;;;;;;1035970;28;20072;-72
2023/11/07 02:42:33;;;;;;;5.68;5.07;;;;;;;;;;1035859;28;20394;-72
2023/11/07 02:43:04;;;;;;;13.63;5.50;;;;;;;;;;1036049;28;20478;-72
2023/11/07 02:43:35;;;;;;;4.85;4.22;;;;;;;;;;1035450;28;20076;-72
2023/11/07 02:44:05;;;;;;;11.75;5.03;;;;;;;;;;1036058;28;20108;-72
2023/11/07 02:44:36;;;;;;;2.50;2.30;;;;;;;;;;1035695;28;20026;-72
2023/11/07 02:45:07;;;;;;;14.57;6.47;;;;;;;;;;1036018;28;20022;-72
2023/11/07 02:45:38;;;;;;;13.50;6.35;;;;;;;;;;1035710;28;20473;-72
2023/11/07 02:46:09;;;;;;;6.25;4.97;;;;;;;;;;1036006;28;20026;-72
2023/11/07 02:46:39;;;;;;;7.63;3.70;;;;;;;;;;1036182;28;20033;-72
2023/11/07 02:47:10;;;;;;;27.08;6.95;;;;;;;;;;1035834;28;20410;-72
2023/11/07 02:47:41;;;;;;;10.85;5.70;;;;;;;;;;1035732;28;20030;-72
2023/11/07 02:48:11;;;;;;;5.45;3.50;;;;;;;;;;1035660;28;20032;-72
2023/11/07 02:48:42;;;;;;;12.95;6.03;;;;;;;;;;1035909;28;20072;-72
2023/11/07 02:49:12;;;;;;;8.73;5.20;;;;;;;;;;1036196;28;20042;-72
2023/11/07 02:49:42;;;;;;;7.07;4.82;;;;;;;;;;1035911;28;20021;-72
2023/11/07 02:50:13;;;;;;;8.30;6.10;;;;;;;;;;1035928;28;20030;-72
2023/11/07 02:50:44;;;;;;;8.52;5.88;;;;;;;;;;1035756;28;20454;-72
2023/11/07 02:51:16;;;;;;;4.13;3.38;;;;;;;;;;1035795;28;20120;-72
2023/11/07 02:51:46;;;;;;;9.00;5.13;;;;;;;;;;1032052;28;20482;-72
2023/11/07 02:52:17;;;;;;;4.05;3.75;;;;;;;;;;1035949;28;20082;-72
2023/11/07 02:52:48;;;;;;;12.95;5.65;;;;;;;;;;1035926;28;20029;-72
2023/11/07 02:53:18;;;;;;;20.38;6.38;;;;;;;;;;1033822;28;20022;-72
2023/11/07 02:53:50;;;;;;;6.25;5.72;;;;;;;;;;1033829;28;20064;-72
2023/11/07 02:54:20;;;;;;;5.63;4.95;;;;;;;;;;1035519;28;20026;-72
2023/11/07 02:54:52;;;;;;;4.65;4.05;;;;;;;;;;1035950;28;20033;-72
2023/11/07 02:55:22;;;;;;;3.80;3.50;;;;;;;;;;1035727;28;20034;-72
2023/11/07 02:55:53;;;;;;;6.53;4.35;;;;;;;;;;1036255;28;20029;-72
2023/11/07 02:56:26;;;;;;;8.63;5.47;;;;;;;;;;1035987;28;20033;-72
2023/11/07 02:56:57;;;;;;;9.93;6.15;;;;;;;;;;1036159;28;20116;-72
2023/11/07 02:57:28;;;;;;;19.77;6.00;;;;;;;;;;1034829;28;20030;-72
2023/11/07 02:57:58;;;;;;;8.02;5.15;;;;;;;;;;1035941;28;20022;-72
2023/11/07 02:58:29;;;;;;;4.45;4.15;;;;;;;;;;1035701;28;20041;-72
2023/11/07 02:59:00;;;;;;;20.30;9.50;;;;;;;;;;1036072;28;20022;-72
2023/11/07 02:59:31;;;;;;;7.55;5.13;;;;;;;;;;1035615;28;20532;-72
2023/11/07 03:00:02;;;;;;;10.85;6.35;;;;;;;;;;1036011;28;20080;-72
2023/11/07 03:00:33;;;;;;;2.97;2.78;;;;;;;;;;1035747;28;20057;-72
2023/11/07 03:01:03;;;;;;;6.13;5.55;;;;;;;;;;1035970;28;20124;-72
2023/11/07 03:01:33;;;;;;;8.05;5.25;;;;;;;;;;1035698;28;20072;-72
2023/11/07 03:02:04;;;;;;;19.63;7.32;;;;;;;;;;1035402;28;20030;-72
2023/11/07 03:02:35;;;;;;;4.53;4.10;;;;;;;;;;1035119;28;20025;-72
2023/11/07 03:03:05;;;;;;;21.42;5.97;;;;;;;;;;1035934;28;20026;-72
2023/11/07 03:03:36;;;;;;;7.57;4.90;;;;;;;;;;1031613;28;20074;-72
2023/11/07 03:04:07;;;;;;;6.35;5.72;;;;;;;;;;1031936;28;20479;-72